Time;durP1;ratioP1;P1;durP2;ratioP2;P2;SDS_P1;SDS_P2;PMS_P1;PMS_P2;Temp;Humidity;BMP_temperature;BMP_pressure;BME280_temperature;BME280_humidity;BME280_pressure;Samples;Min_cycle;Max_cycle;Signal;HPM_P1;HPM_P2
2022/03/19 00:01:43;;;;;;;19.33;16.80;;;;;;;3.12;40.29;96493.78;5057847;28;20443;-75
2022/03/19 00:04:08;;;;;;;26.43;18.70;;;;;;;3.00;40.25;96494.56;5058002;28;20570;-76
2022/03/19 00:06:38;;;;;;;29.70;19.93;;;;;;;3.05;40.47;96492.53;5059262;28;20190;-75
2022/03/19 00:09:06;;;;;;;24.80;18.20;;;;;;;2.93;41.29;96499.34;5060748;28;20239;-75
2022/03/19 00:11:32;;;;;;;24.63;18.10;;;;;;;3.10;40.80;96496.47;5061399;28;20424;-76
2022/03/19 00:13:58;;;;;;;31.13;19.87;;;;;;;2.95;41.53;96500.06;5037512;28;20453;-76
2022/03/19 00:16:24;;;;;;;29.70;19.40;;;;;;;3.09;41.48;96493.97;5058888;28;20178;-75
2022/03/19 00:18:50;;;;;;;29.60;19.27;;;;;;;3.36;41.55;96491.31;5063215;28;20443;-75
2022/03/19 00:21:15;;;;;;;33.90;20.40;;;;;;;3.08;42.28;96485.41;5039068;28;20465;-75
2022/03/19 00:23:41;;;;;;;29.50;20.00;;;;;;;2.98;42.03;96493.84;5064367;28;20182;-76
2022/03/19 00:26:08;;;;;;;30.30;20.67;;;;;;;2.76;43.05;96492.69;5057169;28;20432;-76
2022/03/19 00:28:34;;;;;;;25.40;18.33;;;;;;;2.80;42.72;96494.13;5064556;28;20181;-76
2022/03/19 00:30:59;;;;;;;30.87;20.40;;;;;;;2.73;42.83;96495.47;5057409;28;20506;-75
2022/03/19 00:33:25;;;;;;;28.73;19.40;;;;;;;2.85;42.47;96492.09;5051309;28;20420;-76
2022/03/19 00:35:51;;;;;;;27.63;21.10;;;;;;;2.78;42.96;96490.00;5060284;28;20210;-75
2022/03/19 00:38:17;;;;;;;31.70;22.60;;;;;;;2.60;43.99;96497.19;5064733;28;20269;-76
2022/03/19 00:40:43;;;;;;;35.43;24.07;;;;;;;2.70;44.40;96487.94;5058707;28;20182;-76
2022/03/19 00:43:09;;;;;;;34.60;21.17;;;;;;;2.70;44.17;96487.94;5065312;28;20432;-76
2022/03/19 00:45:35;;;;;;;33.37;24.70;;;;;;;2.76;44.56;96484.94;5060476;28;20437;-75
2022/03/19 00:48:01;;;;;;;34.40;23.60;;;;;;;2.77;44.40;96486.59;5051873;28;20426;-76
2022/03/19 00:50:26;;;;;;;29.27;22.30;;;;;;;2.77;44.73;96488.34;5051585;28;20207;-75
2022/03/19 00:52:52;;;;;;;33.57;22.90;;;;;;;2.66;44.20;96489.06;5045075;28;20175;-75
2022/03/19 00:55:17;;;;;;;27.80;20.77;;;;;;;2.74;44.08;96491.97;5040357;28;20203;-76
2022/03/19 00:57:47;;;;;;;31.73;21.30;;;;;;;2.76;44.41;96492.69;5047026;28;20237;-76
2022/03/19 01:00:15;;;;;;;29.27;21.60;;;;;;;2.47;44.68;96492.00;5039084;28;20187;-75
2022/03/19 01:02:42;;;;;;;28.83;20.53;;;;;;;2.48;44.93;96499.63;5065984;28;20420;-76
2022/03/19 01:05:09;;;;;;;30.20;19.83;;;;;;;2.59;44.11;96500.72;5059988;28;20433;-75
2022/03/19 01:07:50;;;;;;;26.20;19.07;;;;;;;2.42;45.21;96499.22;5041014;28;20515;-75
2022/03/19 01:10:18;;;;;;;31.10;19.67;;;;;;;2.30;44.96;96499.06;5063959;28;20463;-75
2022/03/19 01:12:43;;;;;;;28.47;18.53;;;;;;;2.39;45.17;96494.22;5046696;28;20417;-76
2022/03/19 01:15:10;;;;;;;25.63;17.23;;;;;;;2.88;44.46;96493.63;5044847;28;20479;-76
2022/03/19 01:17:37;;;;;;;22.57;18.90;;;;;;;2.45;44.72;96492.09;5057762;28;20183;-75
2022/03/19 01:20:04;;;;;;;27.77;18.38;;;;;;;2.45;44.70;96492.09;5047883;28;20517;-76
2022/03/19 01:22:32;;;;;;;31.13;19.40;;;;;;;2.21;45.66;96491.06;5058269;28;20192;-75
2022/03/19 01:25:03;;;;;;;29.67;21.33;;;;;;;2.06;45.60;96490.25;5060147;28;20418;-75
2022/03/19 01:27:29;;;;;;;29.48;19.50;;;;;;;2.05;45.86;96486.84;5068248;28;20444;-75
2022/03/19 01:29:55;;;;;;;27.17;18.77;;;;;;;1.85;46.09;96484.69;5063708;28;20167;-75
2022/03/19 01:32:20;;;;;;;27.10;18.43;;;;;;;2.08;45.93;96481.50;5050310;28;20282;-75
2022/03/19 01:34:46;;;;;;;26.47;17.77;;;;;;;2.09;45.43;96482.34;5044503;28;20202;-75
2022/03/19 01:39:55;;;;;;;24.35;17.80;;;;;;;2.41;44.71;96477.72;5055954;28;20181;-76
2022/03/19 01:42:25;;;;;;;28.77;16.33;;;;;;;2.03;45.47;96478.38;5059706;28;20183;-75
2022/03/19 01:44:52;;;;;;;23.65;15.85;;;;;;;1.83;45.92;96476.22;5058729;28;20543;-76
2022/03/19 01:47:18;;;;;;;22.08;17.15;;;;;;;1.97;45.39;96475.34;5056742;28;20186;-75
2022/03/19 01:49:43;;;;;;;27.27;18.20;;;;;;;2.10;45.14;96471.88;5063746;28;20172;-75
2022/03/19 01:52:08;;;;;;;29.07;18.57;;;;;;;2.08;45.15;96465.19;5067668;28;20230;-76
2022/03/19 01:54:43;;;;;;;34.50;19.43;;;;;;;1.79;46.04;96474.75;5063716;28;20203;-75
2022/03/19 01:57:11;;;;;;;29.20;19.00;;;;;;;1.65;46.40;96462.66;5044700;28;20185;-75
2022/03/19 01:59:38;;;;;;;37.60;21.50;;;;;;;1.64;47.00;96464.44;5063331;28;20433;-75
2022/03/19 02:02:05;;;;;;;31.70;21.92;;;;;;;1.79;46.38;96470.41;5039605;28;20193;-75
2022/03/19 02:04:33;;;;;;;34.58;22.38;;;;;;;1.79;46.43;96467.81;5064453;28;20178;-75
2022/03/19 02:07:00;;;;;;;35.65;23.48;;;;;;;1.60;46.93;96462.97;5065700;28;20186;-75
2022/03/19 02:09:25;;;;;;;31.30;22.17;;;;;;;1.70;47.50;96461.47;5065040;28;20188;-75
2022/03/19 02:11:51;;;;;;;33.33;21.80;;;;;;;1.88;47.27;96456.94;5060072;28;20188;-75
2022/03/19 02:14:18;;;;;;;31.53;19.50;;;;;;;1.66;46.56;96462.56;5045384;28;20595;-75
2022/03/19 02:16:44;;;;;;;26.95;18.30;;;;;;;1.80;46.50;96460.91;5056768;28;20944;-75
2022/03/19 02:19:10;;;;;;;30.92;19.63;;;;;;;2.10;45.18;96456.41;5056073;28;20182;-75
2022/03/19 02:21:49;;;;;;;26.20;19.60;;;;;;;1.79;46.48;96461.84;5045354;28;20246;-75
2022/03/19 02:27:01;;;;;;;27.83;20.00;;;;;;;1.41;47.07;96449.53;5056892;28;20217;-75
2022/03/19 02:29:26;;;;;;;22.83;18.45;;;;;;;1.44;47.41;96457.06;5064300;28;20179;-75
2022/03/19 02:31:58;;;;;;;25.10;19.03;;;;;;;1.29;47.43;96449.34;5042630;28;20195;-75
2022/03/19 02:34:24;;;;;;;26.17;18.02;;;;;;;1.64;47.65;96455.88;5056805;28;20198;-75
2022/03/19 02:36:50;;;;;;;22.23;18.20;;;;;;;1.59;47.16;96452.72;5062936;28;20186;-76
2022/03/19 02:39:16;;;;;;;23.60;18.20;;;;;;;1.54;46.90;96459.00;5065938;28;20722;-75
2022/03/19 02:41:47;;;;;;;25.05;18.35;;;;;;;1.52;46.57;96450.53;5064480;28;20590;-75
2022/03/19 02:44:15;;;;;;;29.98;19.83;;;;;;;1.72;46.44;96457.03;5047976;28;20186;-75
2022/03/19 02:46:52;;;;;;;27.80;18.38;;;;;;;1.82;46.25;96453.88;5063869;28;20175;-75
2022/03/19 02:49:19;;;;;;;23.77;20.75;;;;;;;1.67;47.13;96466.84;5065220;28;20185;-75
2022/03/19 02:51:50;;;;;;;29.27;19.05;;;;;;;1.63;46.90;96470.53;5035141;28;20233;-75
2022/03/19 02:54:18;;;;;;;30.67;20.38;;;;;;;1.78;46.56;96479.06;5065369;28;20194;-75
2022/03/19 02:56:45;;;;;;;23.80;17.95;;;;;;;1.79;46.66;96474.75;5064684;28;20179;-75
2022/03/19 02:59:21;;;;;;;24.77;19.50;;;;;;;1.74;47.05;96468.09;5065979;28;20178;-75
2022/03/19 03:01:52;;;;;;;28.33;19.80;;;;;;;1.68;46.78;96468.47;5059816;28;20245;-75
2022/03/19 03:04:18;;;;;;;29.25;19.27;;;;;;;1.66;47.15;96475.47;5056734;28;20230;-75
2022/03/19 03:06:46;;;;;;;26.37;19.63;;;;;;;1.57;47.34;96476.03;5046839;28;20562;-75
2022/03/19 03:09:13;;;;;;;31.73;20.45;;;;;;;1.74;47.36;96478.41;5065945;28;20425;-75
2022/03/19 03:11:39;;;;;;;33.22;21.17;;;;;;;1.92;46.45;96470.47;5063767;28;20189;-75
2022/03/19 03:14:06;;;;;;;42.40;25.17;;;;;;;1.34;48.46;96475.66;5045241;28;20203;-75
2022/03/19 03:16:32;;;;;;;34.00;22.45;;;;;;;1.42;48.58;96467.47;5044560;28;20537;-75
2022/03/19 03:19:06;;;;;;;30.08;20.85;;;;;;;1.45;48.14;96466.47;5056768;28;20184;-75
2022/03/19 03:21:35;;;;;;;26.77;18.23;;;;;;;1.58;48.06;96462.22;5062997;28;20597;-75
2022/03/19 03:24:03;;;;;;;25.17;20.02;;;;;;;1.62;48.50;96473.19;5060904;28;20177;-75
2022/03/19 03:26:29;;;;;;;30.13;18.27;;;;;;;1.68;47.85;96472.81;5063058;28;20208;-75
2022/03/19 03:28:56;;;;;;;24.33;17.02;;;;;;;1.86;46.82;96463.09;5065978;28;20551;-75
2022/03/19 03:31:22;;;;;;;22.70;17.60;;;;;;;1.72;46.85;96472.50;5049664;28;20186;-75
2022/03/19 03:33:47;;;;;;;27.17;18.17;;;;;;;1.71;47.40;96473.47;5048355;28;20459;-75
2022/03/19 03:36:13;;;;;;;27.67;19.37;;;;;;;1.48;48.25;96476.59;5057800;28;20603;-75
2022/03/19 03:38:39;;;;;;;34.70;21.33;;;;;;;1.58;48.30;96461.41;5065621;28;20265;-75
2022/03/19 03:41:05;;;;;;;26.47;18.80;;;;;;;1.45;48.29;96466.47;5063552;28;20189;-75
2022/03/19 03:43:30;;;;;;;25.60;18.10;;;;;;;1.36;48.59;96468.66;5058883;28;20187;-75
2022/03/19 03:45:56;;;;;;;26.80;18.60;;;;;;;1.43;48.18;96469.13;5058310;28;20190;-75
2022/03/19 03:48:21;;;;;;;26.47;18.80;;;;;;;1.29;48.87;96469.13;5065218;28;20184;-75
2022/03/19 03:50:54;;;;;;;27.13;18.20;;;;;;;1.22;47.91;96466.09;5063562;28;20222;-75
2022/03/19 03:53:22;;;;;;;23.95;16.30;;;;;;;1.40;48.46;96463.34;5065624;28;20727;-75
2022/03/19 03:55:48;;;;;;;27.48;17.75;;;;;;;1.52;48.17;96462.59;5062386;28;20182;-75
2022/03/19 03:58:14;;;;;;;23.63;18.17;;;;;;;1.54;47.82;96471.09;5061248;28;20179;-75
2022/03/19 04:00:39;;;;;;;31.73;18.03;;;;;;;1.65;47.47;96465.25;5029568;28;20180;-74
2022/03/19 04:03:05;;;;;;;28.67;18.23;;;;;;;1.66;47.05;96478.06;5059075;28;20176;-75
2022/03/19 04:05:31;;;;;;;29.33;18.50;;;;;;;1.69;46.71;96471.88;5063713;28;20181;-75
2022/03/19 04:07:57;;;;;;;22.80;16.20;;;;;;;1.65;46.65;96473.00;5065044;28;20186;-74
2022/03/19 04:10:23;;;;;;;27.38;18.33;;;;;;;1.64;47.20;96469.59;5056129;28;20435;-75
2022/03/19 04:12:48;;;;;;;26.37;17.73;;;;;;;1.54;47.61;96464.16;5062678;28;20199;-75
2022/03/19 04:15:14;;;;;;;24.90;18.40;;;;;;;1.47;47.78;96469.78;5052991;28;20555;-75
2022/03/19 04:17:42;;;;;;;24.00;14.73;;;;;;;1.36;48.15;96465.25;5065238;28;20269;-75
2022/03/19 04:20:08;;;;;;;22.17;15.40;;;;;;;1.42;48.40;96467.47;5062242;28;20471;-75
2022/03/19 04:22:35;;;;;;;20.08;14.60;;;;;;;1.49;47.49;96475.69;5061481;28;20178;-75
2022/03/19 04:25:00;;;;;;;18.55;14.60;;;;;;;1.25;47.98;96476.25;5063670;28;20174;-76
2022/03/19 04:27:26;;;;;;;26.63;14.57;;;;;;;1.12;48.45;96472.72;5064511;28;20194;-75
2022/03/19 04:29:51;;;;;;;18.30;13.43;;;;;;;1.15;47.12;96472.53;5054493;28;20178;-75
2022/03/19 04:32:17;;;;;;;21.70;13.27;;;;;;;1.33;46.91;96474.03;5064751;28;20178;-75
2022/03/19 04:34:42;;;;;;;19.80;13.20;;;;;;;1.46;47.08;96478.44;5051548;28;20735;-75
2022/03/19 04:37:08;;;;;;;15.90;14.07;;;;;;;1.11;47.83;96473.63;5051097;28;20174;-74
2022/03/19 04:39:34;;;;;;;17.50;12.17;;;;;;;1.59;46.99;96474.19;5066666;28;20168;-75
2022/03/19 04:41:59;;;;;;;20.30;12.20;;;;;;;1.50;46.23;96475.59;5068893;28;20719;-75
2022/03/19 04:44:24;;;;;;;18.77;13.03;;;;;;;1.42;47.19;96479.53;5067118;28;20234;-75
2022/03/19 04:46:50;;;;;;;21.27;13.97;;;;;;;1.66;46.28;96470.31;5050907;28;20185;-75
2022/03/19 04:49:15;;;;;;;18.10;13.00;;;;;;;1.95;45.47;96475.44;5067284;28;20170;-76
2022/03/19 04:51:42;;;;;;;20.20;15.20;;;;;;;1.90;44.70;96477.50;5055006;28;20724;-76
2022/03/19 04:54:07;;;;;;;17.38;14.57;;;;;;;1.54;46.45;96465.94;5068908;28;20348;-75
2022/03/19 04:56:33;;;;;;;17.70;14.03;;;;;;;1.52;47.10;96470.34;5067462;28;20224;-76
2022/03/19 04:59:00;;;;;;;17.30;13.90;;;;;;;1.27;46.94;96469.25;5041013;28;20176;-76
2022/03/19 05:01:30;;;;;;;16.42;13.30;;;;;;;1.29;47.17;96461.38;5062039;28;20174;-76
2022/03/19 05:03:56;;;;;;;16.98;13.65;;;;;;;1.43;47.55;96466.56;5068660;28;20209;-76
2022/03/19 05:06:21;;;;;;;23.10;17.37;;;;;;;1.34;47.65;96464.53;5060690;28;20626;-76
2022/03/19 05:11:12;;;;;;;23.87;17.90;;;;;;;1.50;47.46;96469.59;5050616;28;20585;-75
2022/03/19 05:11:36;;;;;;;20.33;14.10;;;;;;;1.87;46.38;96465.59;5057950;28;20266;-75
2022/03/19 05:14:01;;;;;;;19.23;14.00;;;;;;;1.44;46.41;96468.22;5061932;28;20190;-76
2022/03/19 05:16:26;;;;;;;20.27;13.97;;;;;;;1.72;45.85;96463.94;5060813;28;20178;-76
2022/03/19 05:18:52;;;;;;;22.00;15.47;;;;;;;1.68;45.84;96473.63;5068119;28;20225;-74
2022/03/19 05:21:17;;;;;;;16.40;14.60;;;;;;;1.69;46.73;96471.88;5058646;28;20202;-75
2022/03/19 05:23:45;;;;;;;16.73;15.03;;;;;;;1.90;46.20;96477.50;5050481;28;20648;-75
2022/03/19 05:26:11;;;;;;;23.63;15.57;;;;;;;1.88;46.37;96479.34;5061195;28;20189;-75
2022/03/19 05:28:36;;;;;;;18.85;16.10;;;;;;;1.99;46.49;96481.25;5054024;28;20193;-76
2022/03/19 05:31:02;;;;;;;26.40;16.70;;;;;;;2.54;45.40;96481.16;5061325;28;20174;-75
2022/03/19 05:36:12;;;;;;;23.40;18.45;;;;;;;2.36;45.75;96482.34;5061210;28;20285;-75
2022/03/19 05:38:38;;;;;;;24.03;18.57;;;;;;;2.83;45.24;96473.25;5067792;28;20206;-75
2022/03/19 05:41:03;;;;;;;30.87;18.67;;;;;;;2.46;45.37;96483.41;5061758;28;20177;-75
2022/03/19 05:43:29;;;;;;;31.93;20.30;;;;;;;2.65;44.97;96479.63;5065247;28;20222;-75
2022/03/19 05:45:55;;;;;;;27.77;20.17;;;;;;;1.95;46.36;96475.44;5064443;28;20171;-74
2022/03/19 05:48:20;;;;;;;23.00;19.37;;;;;;;1.94;46.48;96484.94;5053858;28;20558;-76
2022/03/19 05:50:46;;;;;;;24.00;17.90;;;;;;;2.10;45.41;96479.63;5063893;28;20300;-75
2022/03/19 05:53:12;;;;;;;24.30;17.00;;;;;;;1.66;47.00;96488.38;5059757;28;20313;-75
2022/03/19 05:55:37;;;;;;;26.07;16.57;;;;;;;1.67;46.96;96491.78;5056251;28;20213;-76
2022/03/19 05:58:03;;;;;;;26.33;18.10;;;;;;;2.28;45.78;96500.09;5066778;28;20186;-75
2022/03/19 06:00:28;;;;;;;28.33;17.40;;;;;;;2.58;44.16;96493.88;5042914;28;20243;-75
2022/03/19 06:02:54;;;;;;;25.37;17.17;;;;;;;2.55;44.55;96487.16;5056591;28;20182;-76
2022/03/19 06:05:20;;;;;;;31.20;17.67;;;;;;;3.03;43.23;96482.28;5057695;28;20180;-75
2022/03/19 06:07:45;;;;;;;22.90;16.40;;;;;;;3.09;43.34;96489.66;5066870;28;20179;-75
2022/03/19 06:10:11;;;;;;;19.97;16.87;;;;;;;3.13;43.76;96492.88;5058045;28;20655;-75
2022/03/19 06:12:37;;;;;;;25.70;19.10;;;;;;;2.88;43.99;96494.50;5059789;28;20193;-75
2022/03/19 06:15:03;;;;;;;26.77;19.07;;;;;;;2.89;44.76;96483.19;5047743;28;20473;-75
2022/03/19 06:17:29;;;;;;;27.93;21.10;;;;;;;3.21;44.12;96482.81;5041430;28;20235;-75
2022/03/19 06:19:54;;;;;;;28.97;19.37;;;;;;;3.18;43.67;96484.78;5062622;28;20479;-76
2022/03/19 06:22:21;;;;;;;27.23;19.40;;;;;;;3.47;43.17;96482.81;5048544;28;20178;-75
2022/03/19 06:24:47;;;;;;;29.30;20.97;;;;;;;3.23;43.10;96485.31;5060372;28;20183;-75
2022/03/19 06:27:12;;;;;;;31.07;21.67;;;;;;;2.84;44.54;96490.41;5065636;28;20413;-75
2022/03/19 06:29:38;;;;;;;31.10;21.67;;;;;;;3.05;43.88;96484.78;5062408;28;20638;-75
2022/03/19 06:32:04;;;;;;;28.37;20.17;;;;;;;3.39;43.18;96485.09;5045956;28;20198;-75
2022/03/19 06:34:30;;;;;;;28.67;20.33;;;;;;;2.83;43.27;96488.78;5062104;28;20208;-75
2022/03/19 06:39:40;;;;;;;26.90;18.80;;;;;;;3.24;42.69;96482.59;5048903;28;20459;-75
2022/03/19 06:42:06;;;;;;;25.83;20.17;;;;;;;3.67;41.54;96494.41;5052077;28;20500;-75
2022/03/19 06:44:33;;;;;;;29.60;20.20;;;;;;;3.90;41.51;96490.22;5050165;28;20182;-75
2022/03/19 06:46:59;;;;;;;29.80;19.80;;;;;;;4.15;40.74;96493.66;5058246;28;20674;-75
2022/03/19 06:49:26;;;;;;;25.57;18.03;;;;;;;3.91;41.18;96486.69;5054045;28;20483;-75
2022/03/19 06:51:51;;;;;;;27.37;20.10;;;;;;;4.17;40.51;96489.19;5045702;28;20701;-75
2022/03/19 06:54:17;;;;;;;28.57;17.70;;;;;;;4.41;39.76;96491.81;5052272;28;20461;-76
2022/03/19 06:56:42;;;;;;;23.90;18.53;;;;;;;3.91;40.09;96491.88;5064987;28;20182;-75
2022/03/19 06:59:08;;;;;;;27.37;18.00;;;;;;;3.61;40.98;96487.88;5064653;28;20182;-75
2022/03/19 07:01:36;;;;;;;22.57;17.83;;;;;;;3.90;40.56;96487.63;5062885;28;20178;-75
2022/03/19 07:04:02;;;;;;;23.00;15.87;;;;;;;3.71;39.99;96481.13;5065293;28;20179;-76
2022/03/19 07:06:27;;;;;;;22.47;16.10;;;;;;;3.56;40.00;96476.19;5060058;28;20432;-75
2022/03/19 07:08:53;;;;;;;25.37;18.73;;;;;;;3.98;39.99;96477.53;5054963;28;20444;-75
2022/03/19 07:11:18;;;;;;;26.60;18.13;;;;;;;4.24;39.90;96477.47;5043890;28;20233;-75
2022/03/19 07:13:44;;;;;;;30.43;18.37;;;;;;;4.66;39.03;96472.72;5058616;28;20191;-76
2022/03/19 07:16:09;;;;;;;22.50;16.93;;;;;;;4.96;38.45;96468.81;5059198;28;20174;-76
2022/03/19 07:18:35;;;;;;;31.30;18.33;;;;;;;4.89;37.91;96473.63;5053180;28;20183;-75
2022/03/19 07:21:00;;;;;;;27.13;17.23;;;;;;;4.46;37.93;96467.22;5063941;28;20209;-75
2022/03/19 07:23:26;;;;;;;21.00;16.23;;;;;;;4.50;38.26;96468.66;5060046;28;20201;-75
2022/03/19 07:25:52;;;;;;;25.77;16.77;;;;;;;4.80;37.82;96467.34;5057662;28;20189;-76
2022/03/19 07:28:18;;;;;;;19.50;15.87;;;;;;;4.57;38.15;96463.00;5034148;28;20413;-75
2022/03/19 07:30:45;;;;;;;22.00;14.33;;;;;;;4.85;37.28;96465.22;5063010;28;20187;-75
2022/03/19 07:33:11;;;;;;;20.20;14.03;;;;;;;4.63;38.35;96466.00;5032503;28;20460;-75
2022/03/19 07:35:38;;;;;;;32.43;17.67;;;;;;;4.32;38.26;96467.38;5053008;28;20477;-75
2022/03/19 07:38:05;;;;;;;18.33;15.00;;;;;;;4.60;38.25;96463.63;5059164;28;20187;-75
2022/03/19 07:43:16;;;;;;;25.03;16.63;;;;;;;4.81;36.84;96471.59;5055537;28;20425;-75
2022/03/19 07:45:42;;;;;;;21.67;16.40;;;;;;;5.12;37.22;96463.28;5055373;28;20460;-76
2022/03/19 07:48:08;;;;;;;25.97;16.47;;;;;;;4.89;37.53;96468.44;5051399;28;20495;-75
2022/03/19 07:50:34;;;;;;;19.87;16.60;;;;;;;5.22;37.09;96462.50;5052978;28;20429;-76
2022/03/19 07:53:00;;;;;;;20.27;16.60;;;;;;;4.83;37.46;96458.50;5057941;28;20428;-76
2022/03/19 07:55:26;;;;;;;21.30;15.17;;;;;;;4.80;36.75;96463.91;5053736;28;20474;-76
2022/03/19 07:57:52;;;;;;;20.57;15.27;;;;;;;5.64;35.69;96467.94;5050743;28;20175;-76
2022/03/19 08:00:18;;;;;;;18.37;15.27;;;;;;;5.68;35.21;96464.16;5045108;28;20247;-75
2022/03/19 08:02:45;;;;;;;19.60;12.87;;;;;;;6.13;33.69;96462.50;5033745;28;20434;-76
2022/03/19 08:05:12;;;;;;;21.10;13.47;;;;;;;5.90;33.27;96467.72;5063593;28;20432;-75
2022/03/19 08:07:37;;;;;;;19.53;12.23;;;;;;;6.24;32.64;96467.66;5064915;28;20420;-75
2022/03/19 08:10:04;;;;;;;25.30;13.60;;;;;;;6.87;31.53;96457.41;5063736;28;20436;-76
2022/03/19 08:12:31;;;;;;;17.73;12.23;;;;;;;6.38;31.89;96462.19;5065508;28;20202;-76
2022/03/19 08:14:59;;;;;;;15.70;11.10;;;;;;;6.56;31.06;96466.88;5051793;28;20537;-76
2022/03/19 08:17:25;;;;;;;18.03;11.90;;;;;;;6.83;30.44;96456.81;5060763;28;20417;-76
2022/03/19 08:19:51;;;;;;;15.10;9.20;;;;;;;6.09;30.82;96454.13;5055023;28;20436;-76
2022/03/19 08:22:16;;;;;;;14.03;11.00;;;;;;;6.39;30.68;96461.28;5040122;28;20509;-76
2022/03/19 08:24:42;;;;;;;14.50;9.93;;;;;;;6.37;30.19;96462.31;5064494;28;20184;-76
2022/03/19 08:27:09;;;;;;;12.40;9.93;;;;;;;6.60;29.75;96457.88;5069098;28;20179;-75
2022/03/19 08:29:35;;;;;;;12.60;8.63;;;;;;;6.71;29.85;96452.63;5056662;28;20206;-75
2022/03/19 08:32:01;;;;;;;9.60;8.67;;;;;;;7.01;29.36;96453.66;5068093;28;20432;-76
2022/03/19 08:34:26;;;;;;;9.87;8.97;;;;;;;7.07;28.59;96447.94;5057902;28;20472;-76
2022/03/19 08:36:52;;;;;;;9.40;8.33;;;;;;;7.04;29.18;96450.81;5061395;28;20179;-76
2022/03/19 08:44:46;;;;;;;9.87;5.30;;;;;;;7.67;28.40;96448.13;5061213;28;20483;-76
2022/03/19 08:47:12;;;;;;;9.67;7.70;;;;;;;6.71;29.04;96434.41;5061874;28;20432;-76
2022/03/19 08:49:37;;;;;;;12.27;10.97;;;;;;;7.10;29.26;96439.06;5059106;28;20181;-75
2022/03/19 08:52:03;;;;;;;23.53;11.33;;;;;;;7.81;29.11;96439.09;5063187;28;20260;-76
2022/03/19 08:54:29;;;;;;;15.70;11.00;;;;;;;8.76;28.13;96430.78;5063483;28;20577;-76
2022/03/19 08:56:55;;;;;;;13.40;10.87;;;;;;;9.17;27.45;96428.78;5038637;28;20247;-76
2022/03/19 08:59:20;;;;;;;14.23;10.63;;;;;;;8.05;27.15;96425.72;5061523;28;20186;-76
2022/03/19 09:01:51;;;;;;;13.27;10.80;;;;;;;8.19;28.34;96420.13;5049689;28;20442;-76
2022/03/19 09:04:21;;;;;;;12.83;10.13;;;;;;;8.55;27.07;96427.47;5059587;28;20183;-76
2022/03/19 09:06:48;;;;;;;14.87;10.03;;;;;;;8.12;27.44;96421.63;5057717;28;20432;-74
2022/03/19 09:09:16;;;;;;;15.03;9.90;;;;;;;7.97;27.07;96430.78;5057418;28;20422;-75
2022/03/19 09:11:42;;;;;;;11.90;8.47;;;;;;;7.21;28.34;96432.00;5057776;28;20426;-75
2022/03/19 09:14:12;;;;;;;13.20;10.90;;;;;;;7.41;27.81;96421.66;5052509;28;20459;-75
2022/03/19 09:16:37;;;;;;;9.27;8.37;;;;;;;8.11;27.14;96419.16;5033790;28;20441;-74
2022/03/19 09:19:03;;;;;;;11.93;9.77;;;;;;;7.48;27.87;96422.00;5066187;28;20423;-75
2022/03/19 09:21:29;;;;;;;11.20;9.63;;;;;;;7.20;28.14;96421.72;5058957;28;20304;-75
2022/03/19 09:23:58;;;;;;;10.97;9.77;;;;;;;8.04;27.90;96428.47;5035304;28;20453;-75
2022/03/19 09:26:24;;;;;;;11.40;8.37;;;;;;;8.19;26.93;96417.53;5057724;28;20189;-75
2022/03/19 09:28:50;;;;;;;11.10;9.00;;;;;;;8.69;25.95;96405.31;5065735;28;20920;-75
2022/03/19 09:31:17;;;;;;;10.47;8.57;;;;;;;7.49;28.11;96415.81;5048496;28;20418;-74
2022/03/19 09:33:46;;;;;;;8.40;7.00;;;;;;;7.37;27.52;96409.88;5031623;28;20425;-75
2022/03/19 09:36:13;;;;;;;16.23;11.10;;;;;;;7.86;26.66;96415.25;5054296;28;20433;-74
2022/03/19 09:38:40;;;;;;;12.00;9.33;;;;;;;8.06;27.58;96410.91;5030726;28;20473;-74
2022/03/19 09:41:05;;;;;;;9.23;7.80;;;;;;;8.36;26.81;96399.53;5046849;28;20512;-75
2022/03/19 09:43:31;;;;;;;14.53;9.87;;;;;;;7.08;29.76;96407.94;5059275;28;20916;-74
2022/03/19 09:45:57;;;;;;;12.40;7.83;;;;;;;7.04;29.30;96409.97;5062516;28;20174;-74
2022/03/19 09:48:22;;;;;;;11.13;8.73;;;;;;;6.43;30.02;96418.47;5041904;28;20180;-74
2022/03/19 09:50:58;;;;;;;12.00;9.10;;;;;;;6.86;29.45;96416.72;5050663;28;20326;-74
2022/03/19 09:53:28;;;;;;;13.30;9.30;;;;;;;6.86;29.14;96413.28;5068821;28;20179;-74
2022/03/19 09:55:57;;;;;;;12.93;9.90;;;;;;;7.26;29.48;96407.34;5029457;28;20466;-74
2022/03/19 09:58:26;;;;;;;10.50;9.47;;;;;;;7.36;28.89;96405.59;5054813;28;20428;-74
2022/03/19 10:00:52;;;;;;;14.47;9.67;;;;;;;6.95;29.57;96404.72;5052785;28;20430;-74
2022/03/19 10:03:22;;;;;;;15.57;10.60;;;;;;;6.83;30.32;96417.78;5060352;28;20418;-74
2022/03/19 10:08:36;;;;;;;11.10;9.07;;;;;;;6.80;30.75;96410.22;5060291;28;20429;-75
2022/03/19 10:11:08;;;;;;;11.80;9.10;;;;;;;6.61;30.70;96413.53;5059357;28;20436;-75
2022/03/19 10:13:47;;;;;;;9.90;8.77;;;;;;;6.98;30.09;96407.03;5054180;28;20426;-74
2022/03/19 10:16:24;;;;;;;12.27;9.87;;;;;;;6.63;30.35;96416.00;5059320;28;20447;-74
2022/03/19 10:19:06;;;;;;;11.87;9.57;;;;;;;6.73;30.05;96409.09;5052317;28;20435;-73
2022/03/19 10:21:37;;;;;;;12.27;10.00;;;;;;;7.53;29.35;96406.78;5039572;28;20500;-74
2022/03/19 10:24:06;;;;;;;12.70;10.10;;;;;;;8.21;28.80;96399.13;5045784;28;20489;-75
2022/03/19 10:26:34;;;;;;;13.67;9.63;;;;;;;7.96;29.05;96400.47;5062851;28;20513;-75
2022/03/19 10:29:07;;;;;;;10.77;8.77;;;;;;;8.31;28.97;96405.19;5066998;28;20983;-75
2022/03/19 10:31:37;;;;;;;10.37;8.63;;;;;;;7.94;28.67;96403.19;5039506;28;20463;-75
2022/03/19 10:34:05;;;;;;;12.07;8.57;;;;;;;8.22;27.32;96400.78;5065818;28;20464;-74
2022/03/19 10:36:33;;;;;;;9.60;8.20;;;;;;;6.92;29.02;96410.97;5056396;28;20425;-74
2022/03/19 10:38:59;;;;;;;10.83;8.93;;;;;;;7.38;29.11;96404.53;5028898;28;20435;-75
2022/03/19 10:41:34;;;;;;;15.10;9.10;;;;;;;7.41;28.55;96403.44;5046459;28;20423;-74
2022/03/19 10:44:19;;;;;;;11.23;8.30;;;;;;;7.66;28.39;96396.13;5042137;28;20417;-75
2022/03/19 10:47:11;;;;;;;10.63;8.07;;;;;;;7.39;29.12;96394.94;5051851;28;20449;-75
2022/03/19 10:49:41;;;;;;;10.37;7.77;;;;;;;7.29;28.63;96396.69;5028108;28;20457;-75
2022/03/19 10:52:07;;;;;;;7.77;6.97;;;;;;;7.01;29.38;96391.19;5029879;28;20481;-75
2022/03/19 10:54:34;;;;;;;9.47;6.80;;;;;;;8.07;28.60;96396.91;5055636;28;20462;-75
2022/03/19 10:57:01;;;;;;;11.27;7.00;;;;;;;8.07;27.88;96402.13;5042418;28;20425;-74
2022/03/19 10:59:30;;;;;;;8.63;7.17;;;;;;;8.12;28.30;96389.50;5063233;28;20433;-74
2022/03/19 11:01:59;;;;;;;7.93;7.10;;;;;;;8.56;27.30;96385.56;5054139;28;20425;-74
2022/03/19 11:04:26;;;;;;;8.00;6.03;;;;;;;8.46;27.04;96386.53;5055064;28;20428;-74
2022/03/19 11:06:53;;;;;;;7.73;6.00;;;;;;;8.52;27.18;96378.19;5057814;28;20469;-74
2022/03/19 11:09:22;;;;;;;8.80;7.30;;;;;;;8.77;27.67;96374.97;5046940;28;20437;-75
2022/03/19 11:11:57;;;;;;;10.20;7.17;;;;;;;8.61;27.71;96369.50;5040075;28;20449;-75
2022/03/19 11:14:28;;;;;;;10.20;8.63;;;;;;;8.21;28.69;96365.22;5055962;28;20460;-75
2022/03/19 11:17:45;;;;;;;10.50;7.17;;;;;;;8.49;28.07;96371.44;5058854;28;20437;-75
2022/03/19 11:20:12;;;;;;;9.10;7.67;;;;;;;9.84;26.83;96370.31;4953427;29;20418;-75
2022/03/19 11:22:39;;;;;;;7.67;6.77;;;;;;;9.51;26.81;96364.72;4976264;28;20480;-75
2022/03/19 11:25:27;;;;;;;8.07;7.27;;;;;;;9.17;26.62;96373.09;5057615;28;20571;-75
2022/03/19 11:27:55;;;;;;;7.93;7.17;;;;;;;8.35;28.01;96379.66;5054263;28;20409;-75
2022/03/19 11:30:26;;;;;;;8.43;7.60;;;;;;;8.73;27.30;96373.59;5040111;28;20432;-74
2022/03/19 11:33:08;;;;;;;9.73;7.60;;;;;;;9.33;27.09;96368.09;5065595;28;20419;-74
2022/03/19 11:35:39;;;;;;;11.00;7.93;;;;;;;8.98;27.11;96361.75;5034792;28;20450;-74
2022/03/19 11:38:05;;;;;;;7.97;7.20;;;;;;;9.62;25.84;96353.22;5059217;28;21122;-75
2022/03/19 11:40:34;;;;;;;8.23;6.93;;;;;;;10.24;25.63;96354.22;5045505;28;20460;-74
2022/03/19 11:43:01;;;;;;;8.37;6.83;;;;;;;10.30;25.75;96355.41;5064162;28;20503;-75
2022/03/19 11:45:36;;;;;;;10.37;7.50;;;;;;;9.77;25.97;96354.41;5053597;28;20528;-74
2022/03/19 11:48:02;;;;;;;8.87;7.97;;;;;;;9.98;26.38;96354.16;5045607;28;20472;-75
2022/03/19 11:50:30;;;;;;;8.33;7.50;;;;;;;9.83;27.15;96343.38;5045282;28;20450;-75
2022/03/19 11:52:56;;;;;;;9.90;8.57;;;;;;;9.11;28.03;96350.16;5045349;28;20218;-75